Time;durP1;ratioP1;P1;durP2;ratioP2;P2;SDS_P1;SDS_P2;PMS_P1;PMS_P2;Temp;Humidity;BMP_temperature;BMP_pressure;BME280_temperature;BME280_humidity;BME280_pressure;Samples;Min_cycle;Max_cycle;Signal;HPM_P1;HPM_P2
2021/08/15 00:02:21;;;;;;;;;4.25;3.75;;;;;27.29;41.38;101678.78;5014793;28;45493;-73
2021/08/15 00:04:46;;;;;;;;;4.00;4.00;;;;;27.22;41.28;101661.84;5015689;28;45312;-73
2021/08/15 00:07:11;;;;;;;;;5.75;4.50;;;;;27.26;40.96;101660.47;5015268;28;45753;-73
2021/08/15 00:09:37;;;;;;;;;2.25;2.25;;;;;27.28;40.88;101662.94;5015141;28;45417;-73
2021/08/15 00:12:04;;;;;;;;;3.50;3.50;;;;;27.25;41.41;101664.16;5015045;28;46167;-73
2021/08/15 00:14:29;;;;;;;;;3.50;3.00;;;;;27.25;41.12;101661.47;5015337;28;45433;-73
2021/08/15 00:16:55;;;;;;;;;4.00;4.00;;;;;27.24;41.14;101659.84;5015150;28;45373;-73
2021/08/15 00:19:20;;;;;;;;;3.00;3.00;;;;;27.24;41.25;101662.50;5015443;28;45413;-73
2021/08/15 00:21:45;;;;;;;;;3.75;3.75;;;;;27.22;40.93;101663.72;5014899;28;45409;-73
2021/08/15 00:24:11;;;;;;;;;4.00;4.00;;;;;27.20;41.41;101652.38;5014946;28;45498;-74
2021/08/15 00:26:36;;;;;;;;;4.50;4.50;;;;;27.26;40.85;101664.97;5015423;28;45461;-73
2021/08/15 00:29:02;;;;;;;;;6.75;3.50;;;;;27.27;41.33;101669.31;5014031;28;45363;-73
2021/08/15 00:31:28;;;;;;;;;3.75;3.00;;;;;27.23;40.93;101654.69;5014942;28;45686;-73
2021/08/15 00:33:56;;;;;;;;;4.00;4.00;;;;;27.27;41.27;101659.44;5014740;28;45380;-73
2021/08/15 00:36:22;;;;;;;;;5.25;3.50;;;;;27.24;41.11;101654.50;5014617;28;45483;-73
2021/08/15 00:38:47;;;;;;;;;3.25;3.25;;;;;27.21;41.51;101638.03;5014819;28;45547;-73
2021/08/15 00:41:14;;;;;;;;;3.25;3.25;;;;;27.15;41.40;101632.44;5014705;28;45517;-73
2021/08/15 00:43:39;;;;;;;;;5.00;4.25;;;;;27.20;41.00;101628.34;5015489;28;45436;-73
2021/08/15 00:46:13;;;;;;;;;5.00;3.00;;;;;27.23;41.44;101625.28;5014287;28;45420;-73
2021/08/15 00:48:39;;;;;;;;;5.00;4.00;;;;;27.24;40.97;101618.94;5014591;28;45512;-73
2021/08/15 00:51:05;;;;;;;;;3.00;3.00;;;;;27.28;41.10;101626.34;5014520;28;47510;-73
2021/08/15 00:53:40;;;;;;;;;3.75;3.75;;;;;27.11;41.30;101593.78;5014525;28;45401;-73
2021/08/15 00:56:08;;;;;;;;;3.50;3.50;;;;;27.24;41.03;101610.94;5015063;28;45424;-73
2021/08/15 00:58:34;;;;;;;;;4.75;4.00;;;;;27.14;41.32;101596.06;5014952;28;45405;-73
2021/08/15 01:01:06;;;;;;;;;5.25;3.25;;;;;27.25;40.69;101615.22;5014073;28;45873;-73
2021/08/15 01:03:32;;;;;;;;;4.00;3.50;;;;;27.27;41.32;101607.88;5014367;28;45528;-73
2021/08/15 01:05:58;;;;;;;;;4.75;3.75;;;;;27.26;40.90;101609.69;5014564;28;45509;-73
2021/08/15 01:08:24;;;;;;;;;4.75;3.00;;;;;27.28;40.87;101614.84;5014665;28;45351;-73
2021/08/15 01:10:49;;;;;;;;;3.25;3.25;;;;;27.21;41.38;101593.44;5014811;28;45339;-73
2021/08/15 01:13:15;;;;;;;;;7.25;3.00;;;;;27.28;41.03;101604.97;5014144;28;45718;-72
2021/08/15 01:15:41;;;;;;;;;2.75;2.75;;;;;27.25;40.92;101599.19;5014489;28;45406;-73
2021/08/15 01:18:22;;;;;;;;;4.00;3.00;;;;;27.30;41.32;101604.78;5014320;28;45374;-73
2021/08/15 01:20:56;;;;;;;;;5.00;3.00;;;;;27.26;40.93;101598.19;5014234;28;45401;-73
2021/08/15 01:23:21;;;;;;;;;3.25;3.00;;;;;27.28;41.47;101593.47;5014301;28;45564;-73
2021/08/15 01:25:46;;;;;;;;;3.50;3.00;;;;;27.31;40.63;101594.91;5014898;28;45346;-73
2021/08/15 01:28:17;;;;;;;;;8.00;5.25;;;;;27.21;40.73;101576.59;5013887;28;45446;-73
2021/08/15 01:30:42;;;;;;;;;4.00;4.00;;;;;27.29;40.81;101593.28;5013943;28;46154;-73
2021/08/15 01:33:10;;;;;;;;;2.50;2.50;;;;;27.27;41.42;101583.81;5013997;28;45511;-72
2021/08/15 01:35:35;;;;;;;;;4.75;4.00;;;;;27.26;41.37;101583.00;5014198;28;45385;-73
2021/08/15 01:38:01;;;;;;;;;2.00;2.00;;;;;27.29;41.13;101582.59;5014374;28;45483;-73
2021/08/15 01:40:26;;;;;;;;;3.75;3.75;;;;;27.19;40.95;101571.47;5016256;28;46081;-73
2021/08/15 01:42:51;;;;;;;;;4.25;3.50;;;;;27.28;40.96;101580.09;5016992;28;45579;-73
2021/08/15 01:45:17;;;;;;;;;4.00;3.50;;;;;27.25;40.82;101575.16;5017850;28;45474;-73
2021/08/15 01:47:42;;;;;;;;;3.50;3.50;;;;;27.25;40.90;101577.81;5017477;28;45383;-73
2021/08/15 01:50:08;;;;;;;;;3.00;3.00;;;;;27.18;41.20;101559.94;5017452;28;46609;-73
2021/08/15 01:52:33;;;;;;;;;4.50;3.00;;;;;27.26;40.79;101568.81;4999937;28;45402;-73
2021/08/15 01:54:58;;;;;;;;;3.50;3.00;;;;;27.28;40.79;101572.09;5017425;28;45346;-73
2021/08/15 01:57:24;;;;;;;;;6.00;4.00;;;;;27.20;40.95;101561.56;5016922;28;45303;-73
2021/08/15 01:59:49;;;;;;;;;5.00;4.00;;;;;27.20;41.30;101561.56;4999234;28;47167;-73
2021/08/15 02:02:14;;;;;;;;;5.00;3.25;;;;;27.26;41.40;101571.47;5017352;28;45500;-73
2021/08/15 02:04:40;;;;;;;;;4.50;4.50;;;;;27.24;40.93;101570.84;5017796;28;45517;-73
2021/08/15 02:07:05;;;;;;;;;5.25;3.50;;;;;27.23;41.26;101575.38;5017156;28;45713;-73
2021/08/15 02:09:31;;;;;;;;;3.50;3.50;;;;;27.24;40.77;101574.34;5016689;28;46477;-73
2021/08/15 02:11:56;;;;;;;;;4.50;3.25;;;;;27.19;41.03;101560.78;5016744;28;45449;-73
2021/08/15 02:14:21;;;;;;;;;4.00;3.25;;;;;27.21;41.16;101557.88;5017282;28;45362;-73
2021/08/15 02:16:47;;;;;;;;;4.50;3.00;;;;;27.28;41.53;101569.44;5017827;28;45547;-73
2021/08/15 02:19:12;;;;;;;;;3.50;3.50;;;;;27.21;40.72;101553.38;5016670;28;45394;-73
2021/08/15 02:21:38;;;;;;;;;5.00;5.00;;;;;27.26;41.06;101561.63;5016917;28;45438;-73
2021/08/15 02:24:04;;;;;;;;;6.00;6.00;;;;;27.28;40.92;101558.75;5017050;28;45520;-74
2021/08/15 02:26:30;;;;;;;;;3.50;2.75;;;;;27.27;40.87;101557.09;5016545;28;45533;-73
2021/08/15 02:28:55;;;;;;;;;2.75;2.50;;;;;27.21;41.12;101545.38;5016929;28;46438;-73
2021/08/15 02:31:21;;;;;;;;;4.50;3.00;;;;;27.24;41.07;101549.47;5016991;28;45429;-73
2021/08/15 02:33:46;;;;;;;;;5.50;4.00;;;;;27.29;40.58;101555.88;5016786;28;45386;-73
2021/08/15 02:36:11;;;;;;;;;5.00;3.25;;;;;27.24;41.17;101550.31;5016585;28;45476;-73
2021/08/15 02:38:37;;;;;;;;;2.75;2.75;;;;;27.25;40.82;101543.94;5016389;28;46581;-73
2021/08/15 02:41:03;;;;;;;;;3.50;3.50;;;;;27.29;40.78;101544.38;5016407;28;45324;-74
2021/08/15 02:43:29;;;;;;;;;4.25;4.25;;;;;27.30;40.74;101537.97;5017168;28;45242;-73
2021/08/15 02:45:54;;;;;;;;;4.25;4.00;;;;;27.27;41.33;101541.06;5016500;28;45377;-73
2021/08/15 02:48:19;;;;;;;;;4.00;2.25;;;;;27.21;41.22;101515.97;5016222;28;46546;-73
2021/08/15 02:50:45;;;;;;;;;3.25;3.00;;;;;27.26;40.91;101536.75;5015701;28;45600;-74
2021/08/15 02:53:10;;;;;;;;;7.00;3.75;;;;;27.30;41.18;101537.97;5016661;28;45458;-73
2021/08/15 02:55:35;;;;;;;;;3.00;3.00;;;;;27.10;41.04;101503.97;5016746;28;45402;-73
2021/08/15 02:58:01;;;;;;;;;3.50;3.50;;;;;27.29;40.89;101528.34;5016173;28;45603;-73
2021/08/15 03:00:26;;;;;;;;;4.00;4.00;;;;;27.32;40.87;101533.28;5016194;28;45383;-73
2021/08/15 03:02:51;;;;;;;;;5.00;3.75;;;;;27.25;41.04;101516.38;5016424;28;45556;-73
2021/08/15 03:05:19;;;;;;;;;3.75;3.75;;;;;27.28;40.69;101524.00;5016307;28;45574;-73
2021/08/15 03:07:44;;;;;;;;;4.00;3.00;;;;;27.06;41.08;101486.72;5016713;28;46435;-74
2021/08/15 03:10:10;;;;;;;;;4.25;3.00;;;;;27.28;40.92;101513.31;5015552;28;45524;-73
2021/08/15 03:12:36;;;;;;;;;6.00;3.00;;;;;27.29;40.61;101512.31;5016191;28;45612;-73
2021/08/15 03:15:01;;;;;;;;;4.25;4.25;;;;;27.24;41.22;101512.91;5016062;28;45504;-73
2021/08/15 03:17:27;;;;;;;;;3.00;3.00;;;;;27.25;41.06;101513.72;5015705;28;45764;-73
2021/08/15 03:19:52;;;;;;;;;5.75;4.00;;;;;27.21;40.99;101501.78;5016863;28;45366;-73
2021/08/15 03:22:17;;;;;;;;;4.00;4.00;;;;;27.21;40.66;101491.94;5016151;28;45786;-73
2021/08/15 03:24:43;;;;;;;;;1.50;1.50;;;;;27.21;41.35;101493.78;5015527;28;45419;-73
2021/08/15 03:27:08;;;;;;;;;3.25;2.50;;;;;27.24;41.03;101499.56;5015836;28;45467;-73
2021/08/15 03:29:33;;;;;;;;;2.75;2.75;;;;;27.25;41.33;101492.34;5015684;28;45481;-73
2021/08/15 03:31:59;;;;;;;;;3.00;3.00;;;;;27.21;40.83;101494.63;5016180;28;45344;-73
2021/08/15 03:34:24;;;;;;;;;6.25;4.50;;;;;27.22;40.99;101496.25;5016229;28;45295;-73
2021/08/15 03:36:50;;;;;;;;;3.25;3.25;;;;;27.11;40.99;101467.44;4997564;28;47363;-73
2021/08/15 03:39:16;;;;;;;;;5.50;5.00;;;;;27.27;40.75;101491.13;5015425;28;45461;-73
2021/08/15 03:41:42;;;;;;;;;3.75;3.75;;;;;27.27;40.89;101493.00;5015885;28;45307;-73
2021/08/15 03:44:08;;;;;;;;;4.00;3.00;;;;;27.26;41.02;101489.50;5015848;28;45468;-73
2021/08/15 03:46:33;;;;;;;;;6.25;4.50;;;;;27.24;41.08;101483.53;5015968;28;46321;-73
2021/08/15 03:48:59;;;;;;;;;5.25;4.00;;;;;27.20;41.16;101482.28;5015412;28;45433;-73
2021/08/15 03:51:24;;;;;;;;;3.75;3.75;;;;;27.21;40.70;101481.25;5015580;28;45350;-73
2021/08/15 03:53:49;;;;;;;;;4.25;3.50;;;;;27.26;40.96;101486.81;5015329;28;45469;-73
2021/08/15 03:56:15;;;;;;;;;4.00;3.00;;;;;27.24;41.06;101488.88;5015253;28;45393;-73
2021/08/15 03:58:40;;;;;;;;;5.00;5.00;;;;;27.24;40.84;101485.38;5015906;28;45485;-73
2021/08/15 04:01:06;;;;;;;;;4.25;3.75;;;;;27.28;41.51;101489.28;5015418;28;45674;-73
2021/08/15 04:03:31;;;;;;;;;3.00;3.00;;;;;27.18;40.71;101468.28;5015169;28;45527;-73
2021/08/15 04:05:59;;;;;;;;;3.00;3.00;;;;;27.20;40.77;101468.09;5015308;28;45338;-73
2021/08/15 04:08:26;;;;;;;;;3.00;3.00;;;;;27.28;41.17;101489.28;4999122;28;45300;-73
2021/08/15 04:10:51;;;;;;;;;5.25;4.75;;;;;27.10;41.33;101455.91;5011654;28;45440;-73
2021/08/15 04:13:16;;;;;;;;;3.00;3.00;;;;;27.20;40.60;101465.41;5015244;28;45266;-73
2021/08/15 04:15:42;;;;;;;;;4.00;4.00;;;;;27.27;40.87;101480.44;5014977;28;45263;-73
2021/08/15 04:18:07;;;;;;;;;3.50;3.50;;;;;27.20;41.23;101471.59;5014991;28;45485;-73
2021/08/15 04:20:32;;;;;;;;;3.75;3.50;;;;;27.22;40.79;101485.56;5015599;28;45817;-73
2021/08/15 04:22:58;;;;;;;;;6.50;5.25;;;;;27.27;40.99;101483.09;5015012;28;45481;-73
2021/08/15 04:25:23;;;;;;;;;3.25;3.00;;;;;27.13;41.09;101457.38;5015366;28;46273;-73
2021/08/15 04:27:48;;;;;;;;;5.00;4.50;;;;;27.24;41.05;101472.84;5014694;28;45597;-72
2021/08/15 04:30:14;;;;;;;;;5.50;3.00;;;;;27.27;40.80;101468.94;5014973;28;45464;-72
2021/08/15 04:32:39;;;;;;;;;3.00;3.00;;;;;27.26;40.74;101472.63;5015108;28;45366;-72
2021/08/15 04:35:05;;;;;;;;;4.00;3.00;;;;;27.07;41.27;101445.63;5014580;28;47223;-72
2021/08/15 04:37:31;;;;;;;;;3.25;3.00;;;;;27.26;41.20;101470.78;5014828;28;45539;-72
2021/08/15 04:39:56;;;;;;;;;4.00;2.50;;;;;27.30;40.94;101481.88;5014664;28;45460;-72
2021/08/15 04:42:22;;;;;;;;;4.00;3.50;;;;;27.28;41.10;101478.59;5014815;28;45499;-72
2021/08/15 04:44:47;;;;;;;;;5.00;3.00;;;;;27.22;40.48;101464.19;5014618;28;45568;-72
2021/08/15 04:47:12;;;;;;;;;4.50;4.50;;;;;27.29;40.68;101469.56;5014781;28;45569;-72
2021/08/15 04:49:38;;;;;;;;;5.00;3.25;;;;;27.22;40.53;101453.50;4993182;28;45381;-72
2021/08/15 04:52:04;;;;;;;;;4.00;4.00;;;;;27.27;41.33;101458.25;5014385;28;45457;-72
2021/08/15 04:54:30;;;;;;;;;4.50;3.25;;;;;27.29;41.09;101457.03;5014474;28;45663;-72
2021/08/15 04:56:57;;;;;;;;;4.00;4.00;;;;;27.30;41.19;101455.16;5014562;28;45413;-72
2021/08/15 04:59:23;;;;;;;;;2.00;2.00;;;;;27.29;41.24;101456.22;5014579;28;45402;-72
2021/08/15 05:01:48;;;;;;;;;4.50;3.00;;;;;27.16;40.79;101439.13;5015207;28;45564;-72
2021/08/15 05:04:14;;;;;;;;;5.75;4.00;;;;;27.19;40.58;101453.94;5014206;28;46179;-72
2021/08/15 05:06:39;;;;;;;;;3.75;3.00;;;;;27.28;41.08;101474.06;5013887;28;45413;-72
2021/08/15 05:09:05;;;;;;;;;3.00;3.00;;;;;27.25;41.19;101450.44;5014418;28;47249;-72
2021/08/15 05:11:30;;;;;;;;;4.25;3.00;;;;;27.23;40.61;101444.47;5014441;28;45354;-72
2021/08/15 05:13:56;;;;;;;;;3.75;3.75;;;;;27.20;40.88;101438.69;5015438;28;46384;-72
2021/08/15 05:16:21;;;;;;;;;4.25;4.25;;;;;27.22;40.62;101440.16;5018109;28;45275;-72
2021/08/15 05:18:46;;;;;;;;;3.75;3.75;;;;;27.22;40.63;101444.69;5017670;28;45434;-72
2021/08/15 05:21:12;;;;;;;;;4.50;3.50;;;;;27.25;40.63;101447.75;5017808;28;45302;-72
2021/08/15 05:23:37;;;;;;;;;3.25;3.25;;;;;27.21;40.72;101435.03;5017762;28;46554;-72
2021/08/15 05:26:03;;;;;;;;;3.00;3.00;;;;;27.08;41.07;101412.56;5017982;28;45245;-72
2021/08/15 05:28:28;;;;;;;;;5.00;3.75;;;;;27.24;40.98;101446.13;5018203;28;45576;-72
2021/08/15 05:30:53;;;;;;;;;4.00;4.00;;;;;27.07;41.09;101419.75;5017677;28;45485;-74
2021/08/15 05:33:19;;;;;;;;;4.50;4.50;;;;;27.23;40.90;101440.97;5017429;28;45312;-73
2021/08/15 05:35:44;;;;;;;;;3.00;3.00;;;;;27.22;41.19;101442.81;5017087;28;45257;-73
2021/08/15 05:38:09;;;;;;;;;4.00;4.00;;;;;27.23;41.37;101449.81;5017819;28;45295;-74
2021/08/15 05:40:35;;;;;;;;;2.25;2.25;;;;;27.26;40.93;101445.91;5018136;28;45224;-73
2021/08/15 05:43:00;;;;;;;;;3.75;3.00;;;;;27.21;41.19;101445.69;5017243;28;45364;-73
2021/08/15 05:45:26;;;;;;;;;3.00;3.00;;;;;27.19;41.24;101440.56;5017193;28;45451;-72
2021/08/15 05:47:51;;;;;;;;;3.00;3.00;;;;;27.26;40.82;101452.09;5017558;28;45310;-73
2021/08/15 05:50:17;;;;;;;;;2.00;2.00;;;;;27.25;40.58;101438.91;5017052;28;45363;-73
2021/08/15 05:52:42;;;;;;;;;3.50;3.50;;;;;27.22;40.49;101442.81;5017887;28;46359;-75
2021/08/15 05:55:08;;;;;;;;;4.75;2.00;;;;;27.26;40.84;101448.59;5017076;28;45663;-75
2021/08/15 05:57:34;;;;;;;;;3.00;3.00;;;;;27.23;40.94;101432.97;5017123;28;45380;-74
2021/08/15 06:00:00;;;;;;;;;3.25;3.25;;;;;27.23;41.14;101440.97;5017289;28;45408;-74
2021/08/15 06:02:25;;;;;;;;;7.50;5.00;;;;;27.25;41.24;101450.44;5017286;28;45456;-75
2021/08/15 06:04:50;;;;;;;;;3.00;3.00;;;;;27.12;41.26;101427.16;5017200;28;45394;-74
2021/08/15 06:07:16;;;;;;;;;4.50;4.50;;;;;27.29;40.87;101458.88;5017263;28;45484;-74
2021/08/15 06:09:41;;;;;;;;;4.00;4.00;;;;;27.24;40.92;101456.00;5017050;28;45437;-74
2021/08/15 06:12:07;;;;;;;;;5.00;3.00;;;;;27.26;40.77;101460.09;5016944;28;45581;-74
2021/08/15 06:14:37;;;;;;;;;4.00;3.00;;;;;27.30;41.02;101460.50;5017373;28;45521;-75
2021/08/15 06:17:03;;;;;;;;;4.25;4.25;;;;;27.28;40.39;101462.56;5017129;28;45315;-74
2021/08/15 06:19:28;;;;;;;;;4.50;3.50;;;;;27.27;40.61;101458.25;5017035;28;45354;-73
2021/08/15 06:21:54;;;;;;;;;4.00;4.00;;;;;27.25;40.53;101452.28;4999097;28;48125;-73
2021/08/15 06:24:19;;;;;;;;;3.00;3.00;;;;;27.28;40.88;101459.91;4998899;28;45398;-73
2021/08/15 06:26:45;;;;;;;;;3.00;3.00;;;;;27.24;40.84;101439.97;5015803;28;45503;-73
2021/08/15 06:29:10;;;;;;;;;3.00;3.00;;;;;27.29;41.00;101451.69;5016821;28;45370;-73
2021/08/15 06:31:36;;;;;;;;;3.00;3.00;;;;;27.24;41.03;101435.44;5017253;28;46739;-73
2021/08/15 06:34:02;;;;;;;;;2.75;2.75;;;;;27.28;40.92;101443.88;5015954;28;45908;-73
2021/08/15 06:36:28;;;;;;;;;4.25;3.00;;;;;27.26;40.61;101437.91;5016496;28;45700;-73
2021/08/15 06:38:54;;;;;;;;;3.75;3.50;;;;;27.28;40.98;101450.03;5016757;28;45495;-74
2021/08/15 06:41:19;;;;;;;;;4.25;4.25;;;;;27.27;40.82;101445.72;5016477;28;47326;-73
2021/08/15 06:43:44;;;;;;;;;3.00;3.00;;;;;27.29;40.53;101442.84;5017117;28;45320;-74
2021/08/15 06:46:10;;;;;;;;;3.00;3.00;;;;;27.26;40.52;101441.41;5016547;28;45246;-73
2021/08/15 06:48:36;;;;;;;;;3.50;3.50;;;;;27.25;41.29;101439.75;5015939;28;45569;-73
2021/08/15 06:51:01;;;;;;;;;4.00;4.00;;;;;27.31;40.59;101451.47;5016386;28;46346;-73
2021/08/15 06:53:28;;;;;;;;;3.25;3.25;;;;;27.31;40.85;101445.31;5016605;28;45552;-74
2021/08/15 06:55:54;;;;;;;;;5.00;3.75;;;;;27.33;40.96;101451.28;5017257;28;45458;-73
2021/08/15 06:58:20;;;;;;;;;3.00;3.00;;;;;27.28;40.56;101438.53;5016307;28;45969;-73
2021/08/15 07:00:45;;;;;;;;;2.75;2.75;;;;;27.23;40.30;101435.63;5015740;28;46439;-73
2021/08/15 07:03:10;;;;;;;;;2.50;2.50;;;;;27.24;40.65;101427.44;5016069;28;45302;-74
2021/08/15 07:05:36;;;;;;;;;5.00;3.00;;;;;27.29;40.97;101429.50;5016379;28;45589;-73
2021/08/15 07:08:01;;;;;;;;;4.33;4.00;;;;;27.28;41.13;101433.19;5016424;28;45544;-73
2021/08/15 07:10:28;;;;;;;;;4.50;4.50;;;;;27.28;40.83;101431.34;5016429;28;46256;-73
2021/08/15 07:12:55;;;;;;;;;3.00;3.00;;;;;27.33;40.96;101432.56;5015990;28;45424;-73
2021/08/15 07:15:22;;;;;;;;;4.00;4.00;;;;;27.33;40.74;101437.91;5016055;28;45379;-74
2021/08/15 07:17:48;;;;;;;;;5.00;4.00;;;;;27.28;40.69;101423.31;5015842;28;45571;-74
2021/08/15 07:20:14;;;;;;;;;4.75;3.00;;;;;27.31;40.80;101437.28;5015967;28;45584;-73
2021/08/15 07:22:40;;;;;;;;;3.00;3.00;;;;;27.33;41.01;101438.75;5016629;28;45471;-74
2021/08/15 07:25:06;;;;;;;;;3.50;2.75;;;;;27.24;40.70;101424.75;5015988;28;45288;-74
2021/08/15 07:27:33;;;;;;;;;6.75;3.75;;;;;27.26;40.85;101430.72;4997900;28;45450;-74
2021/08/15 07:29:59;;;;;;;;;4.50;3.25;;;;;27.23;40.43;101420.44;5015516;28;47249;-73
2021/08/15 07:32:25;;;;;;;;;2.00;2.00;;;;;27.31;40.38;101435.44;5015539;28;45492;-73
2021/08/15 07:34:50;;;;;;;;;3.50;3.50;;;;;27.33;41.08;101440.59;5016460;28;45378;-73
2021/08/15 07:37:15;;;;;;;;;3.00;3.00;;;;;27.30;40.78;101444.47;5015524;28;45658;-74
2021/08/15 07:39:41;;;;;;;;;4.25;4.25;;;;;27.30;40.31;101436.47;5015616;28;46334;-73
2021/08/15 07:42:06;;;;;;;;;4.25;3.75;;;;;27.29;40.73;101433.00;5015531;28;45301;-73
2021/08/15 07:44:32;;;;;;;;;6.00;4.00;;;;;27.35;40.43;101443.91;5015784;28;45547;-74
2021/08/15 07:46:57;;;;;;;;;2.00;2.00;;;;;27.31;40.82;101440.78;5015751;28;45271;-73
2021/08/15 07:49:22;;;;;;;;;4.00;4.00;;;;;27.29;40.81;101433.00;5015570;28;47187;-73
2021/08/15 07:51:48;;;;;;;;;3.50;3.50;;;;;27.32;40.96;101445.13;5015268;28;45386;-73
2021/08/15 07:54:13;;;;;;;;;4.00;4.00;;;;;27.32;41.06;101438.94;5015613;28;45813;-74
2021/08/15 07:56:38;;;;;;;;;5.00;4.75;;;;;27.35;40.48;101443.91;5015703;28;45530;-73
2021/08/15 07:59:04;;;;;;;;;2.25;2.25;;;;;27.32;40.66;101436.28;5015411;28;46990;-73
2021/08/15 08:01:29;;;;;;;;;3.50;3.50;;;;;27.28;40.67;101423.31;5015498;28;45422;-73
2021/08/15 08:03:54;;;;;;;;;4.75;3.00;;;;;27.35;40.55;101438.56;5015551;28;45820;-73
2021/08/15 08:06:20;;;;;;;;;2.75;2.75;;;;;27.33;41.05;101432.56;5015340;28;45481;-73
2021/08/15 08:08:45;;;;;;;;;3.50;3.50;;;;;27.38;40.84;101441.63;5015216;28;45549;-73
2021/08/15 08:11:10;;;;;;;;;2.50;2.50;;;;;27.31;40.82;101427.44;5015365;28;45567;-72
2021/08/15 08:13:36;;;;;;;;;3.25;3.25;;;;;27.33;40.44;101432.56;5016132;28;45373;-73
2021/08/15 08:16:01;;;;;;;;;4.00;2.75;;;;;27.32;41.02;101422.94;5014970;28;45424;-74
2021/08/15 08:18:27;;;;;;;;;4.00;4.00;;;;;27.37;40.82;101431.16;5014985;28;46725;-73
2021/08/15 08:20:53;;;;;;;;;3.25;3.25;;;;;27.34;41.13;101424.38;5015303;28;45640;-72
2021/08/15 08:23:18;;;;;;;;;2.00;2.00;;;;;27.38;40.45;101432.78;5015422;28;45824;-73
2021/08/15 08:25:45;;;;;;;;;3.00;2.00;;;;;27.40;40.42;101430.75;5015694;28;45521;-72
2021/08/15 08:28:12;;;;;;;;;4.25;3.50;;;;;27.39;41.25;101437.94;5014386;28;47032;-72
2021/08/15 08:30:38;;;;;;;;;4.00;3.00;;;;;27.38;40.49;101430.13;5014632;28;45274;-73
2021/08/15 08:33:03;;;;;;;;;4.00;2.00;;;;;27.38;40.95;101428.28;5014820;28;45366;-72
2021/08/15 08:35:29;;;;;;;;;3.25;3.25;;;;;27.35;41.06;101423.31;5014984;28;45332;-73
2021/08/15 08:37:54;;;;;;;;;3.00;3.00;;;;;27.32;41.13;101420.25;5015581;28;45393;-72
2021/08/15 08:40:20;;;;;;;;;4.50;2.75;;;;;27.39;40.83;101432.59;5014786;28;45310;-72
2021/08/15 08:42:47;;;;;;;;;8.25;4.25;;;;;27.40;41.05;101433.44;5014515;28;45401;-72
2021/08/15 08:45:15;;;;;;;;;4.75;3.75;;;;;27.32;41.25;101421.09;5014721;28;45541;-73
2021/08/15 08:47:41;;;;;;;;;5.00;5.00;;;;;27.40;41.17;101436.91;5014546;28;45330;-72
2021/08/15 08:50:06;;;;;;;;;4.00;4.00;;;;;27.40;41.23;101436.09;4996274;28;45579;-73
2021/08/15 08:52:32;;;;;;;;;5.25;2.75;;;;;27.39;41.13;101426.44;4997378;28;45365;-72
2021/08/15 08:55:00;;;;;;;;;6.00;5.50;;;;;27.34;40.38;101419.03;5014681;28;45476;-73
2021/08/15 08:57:25;;;;;;;;;3.75;3.75;;;;;27.39;41.01;101421.91;5013994;28;47067;-73
2021/08/15 08:59:52;;;;;;;;;2.75;2.75;;;;;27.32;40.63;101405.06;5014606;28;45429;-73
2021/08/15 09:02:17;;;;;;;;;4.25;3.25;;;;;27.40;41.06;101426.22;5013416;28;45334;-72
2021/08/15 09:04:43;;;;;;;;;3.75;3.75;;;;;27.42;41.10;101419.84;5015145;28;45477;-73
2021/08/15 09:07:16;;;;;;;;;5.25;3.75;;;;;27.38;40.52;101414.91;5014324;28;45587;-72
2021/08/15 09:09:50;;;;;;;;;2.50;2.50;;;;;27.43;40.74;101419.63;5014169;28;45485;-73
2021/08/15 09:12:16;;;;;;;;;3.00;3.00;;;;;27.37;41.40;101413.28;5014164;28;45566;-73
2021/08/15 09:14:41;;;;;;;;;3.00;3.00;;;;;27.42;40.91;101419.84;5014466;28;45461;-73
2021/08/15 09:17:08;;;;;;;;;6.00;3.75;;;;;27.37;40.48;101401.75;5014611;28;45416;-73
2021/08/15 09:19:50;;;;;;;;;2.00;2.00;;;;;27.44;40.99;101413.28;4997269;28;45446;-72
2021/08/15 09:22:19;;;;;;;;;2.00;2.00;;;;;27.44;41.40;101409.78;5014131;28;45583;-73
2021/08/15 09:24:52;;;;;;;;;2.50;2.50;;;;;27.42;40.95;101403.81;5014433;28;45497;-75
2021/08/15 09:27:33;;;;;;;;;4.25;3.75;;;;;27.42;41.22;101398.47;5013915;28;46076;-74
2021/08/15 09:30:09;;;;;;;;;3.50;3.50;;;;;27.45;40.63;101395.41;4996811;28;45487;-74
2021/08/15 09:33:02;;;;;;;;;3.00;3.00;;;;;27.42;41.01;101391.28;5015162;28;45505;-75
2021/08/15 09:35:36;;;;;;;;;2.50;2.50;;;;;27.45;40.60;101387.38;4995158;28;45500;-73
2021/08/15 09:38:13;;;;;;;;;2.25;2.25;;;;;27.39;40.95;101373.81;5014836;28;47108;-74
2021/08/15 09:40:45;;;;;;;;;5.25;3.00;;;;;27.39;41.10;101368.47;5012698;28;45346;-75
2021/08/15 09:43:17;;;;;;;;;2.50;2.00;;;;;27.40;40.59;101369.31;5014058;28;45494;-74
2021/08/15 09:45:48;;;;;;;;;3.50;3.50;;;;;27.39;40.64;101367.66;5013981;28;45501;-75
2021/08/15 09:48:33;;;;;;;;;4.00;4.00;;;;;27.46;40.88;101379.16;5013534;28;46453;-74
2021/08/15 09:51:22;;;;;;;;;2.50;2.50;;;;;27.47;40.67;101377.31;5013984;28;45473;-74
2021/08/15 09:53:56;;;;;;;;;3.75;2.75;;;;;27.48;40.75;101373.63;5001271;28;45410;-74
2021/08/15 09:56:38;;;;;;;;;4.00;2.00;;;;;27.46;40.57;101370.31;5013647;28;45450;-74
2021/08/15 09:59:20;;;;;;;;;4.50;4.00;;;;;27.49;41.10;101378.75;5011210;28;45606;-74
2021/08/15 10:01:51;;;;;;;;;4.50;4.50;;;;;27.42;41.21;101367.25;5016660;28;45252;-75
2021/08/15 10:04:18;;;;;;;;;3.50;2.50;;;;;27.46;41.13;101372.97;5017075;28;45445;-74
2021/08/15 10:06:46;;;;;;;;;3.75;3.75;;;;;27.48;41.01;101377.09;5016861;28;45583;-74
2021/08/15 10:09:11;;;;;;;;;3.25;3.25;;;;;27.33;40.78;101352.41;5016827;28;45289;-74
2021/08/15 10:11:39;;;;;;;;;6.00;5.00;;;;;27.47;40.54;101367.44;5016648;28;45461;-74
2021/08/15 10:14:10;;;;;;;;;4.50;3.50;;;;;27.44;40.67;101359.84;5017244;28;45307;-74
2021/08/15 10:16:50;;;;;;;;;3.00;3.00;;;;;27.45;40.73;101366.00;5017389;28;45590;-74
2021/08/15 10:19:25;;;;;;;;;3.50;3.25;;;;;27.46;41.16;101359.63;5016562;28;45399;-74
2021/08/15 10:21:51;;;;;;;;;4.50;3.75;;;;;27.42;41.05;101356.56;5016720;28;45400;-73
2021/08/15 10:24:16;;;;;;;;;3.25;3.25;;;;;27.48;40.35;101362.94;5016388;28;45413;-74
2021/08/15 10:26:45;;;;;;;;;2.75;2.75;;;;;27.33;40.55;101342.56;5016728;28;45445;-74
2021/08/15 10:29:36;;;;;;;;;3.75;3.75;;;;;27.49;41.07;101365.38;5016435;28;45632;-74
2021/08/15 10:32:28;;;;;;;;;5.25;4.25;;;;;27.48;41.12;101363.72;5013700;28;45515;-74
2021/08/15 10:34:54;;;;;;;;;5.75;3.50;;;;;27.50;40.97;101363.53;5009128;28;45323;-73
2021/08/15 10:37:22;;;;;;;;;3.25;3.25;;;;;27.50;40.77;101361.72;5016591;28;45363;-75
2021/08/15 10:39:48;;;;;;;;;3.50;3.50;;;;;27.45;40.63;101356.16;5016011;28;46410;-74
2021/08/15 10:42:39;;;;;;;;;3.75;3.75;;;;;27.50;40.97;101351.00;5016520;28;45486;-74
2021/08/15 10:45:20;;;;;;;;;3.25;3.25;;;;;27.44;41.30;101343.81;5016468;28;45469;-74
2021/08/15 10:48:11;;;;;;;;;5.00;5.00;;;;;27.51;40.77;101357.16;5016600;28;45220;-74
2021/08/15 10:50:43;;;;;;;;;4.25;4.25;;;;;27.51;40.83;101354.47;5001953;28;46586;-74
2021/08/15 10:53:27;;;;;;;;;4.25;4.00;;;;;27.51;40.54;101354.47;5016154;28;47143;-74
2021/08/15 10:55:53;;;;;;;;;3.00;3.00;;;;;27.49;41.22;101354.69;5012456;28;45347;-74
2021/08/15 10:58:40;;;;;;;;;4.00;3.00;;;;;27.52;40.53;101356.13;5016176;28;46447;-74
2021/08/15 11:01:11;;;;;;;;;4.00;3.25;;;;;27.51;41.21;101354.47;4994776;28;46614;-74
2021/08/15 11:03:38;;;;;;;;;3.25;3.25;;;;;27.51;40.95;101363.34;5009872;28;45460;-74
2021/08/15 11:06:05;;;;;;;;;5.25;5.25;;;;;27.34;40.77;101316.69;5016059;28;45385;-74
2021/08/15 11:08:33;;;;;;;;;4.75;3.00;;;;;27.52;41.06;101354.31;5015663;28;46972;-74
2021/08/15 11:11:11;;;;;;;;;4.50;3.00;;;;;27.53;40.92;101347.09;5016216;28;46144;-74
2021/08/15 11:13:38;;;;;;;;;5.25;3.00;;;;;27.54;40.94;101353.25;5014054;28;45300;-74
2021/08/15 11:16:39;;;;;;;;;4.00;3.75;;;;;27.54;40.74;101347.91;5015987;28;45449;-74
2021/08/15 11:19:07;;;;;;;;;5.50;4.75;;;;;27.54;41.29;101353.25;4922463;28;45542;-74
2021/08/15 11:22:06;;;;;;;;;5.75;4.00;;;;;27.54;41.09;101347.91;4920394;28;45522;-74
2021/08/15 11:24:45;;;;;;;;;3.00;3.00;;;;;27.48;41.03;101350.38;4919986;28;45501;-74
2021/08/15 11:27:14;;;;;;;;;3.75;3.75;;;;;27.54;41.42;101346.06;4904377;28;49204;-73